sensor_id;sensor_type;location;lat;lon;timestamp;pressure;altitude;pressure_sealevel;temperature;humidity
76592;BME280;65481;47.600;19.682;2023-02-28T00:00:53;101366.69;;;-1.67;77.52
76592;BME280;65481;47.600;19.682;2023-02-28T00:05:53;101369.88;;;-1.63;78.15
76592;BME280;65481;47.600;19.682;2023-02-28T00:10:54;101368.44;;;-1.56;78.41
76592;BME280;65481;47.600;19.682;2023-02-28T00:16:03;101378.91;;;-1.46;77.90
76592;BME280;65481;47.600;19.682;2023-02-28T00:21:05;101381.38;;;-1.33;77.82
76592;BME280;65481;47.600;19.682;2023-02-28T00:26:06;101379.97;;;-1.38;78.30
76592;BME280;65481;47.600;19.682;2023-02-28T00:31:06;101387.59;;;-1.36;78.26
76592;BME280;65481;47.600;19.682;2023-02-28T00:36:10;101385.09;;;-1.26;78.15
76592;BME280;65481;47.600;19.682;2023-02-28T00:41:10;101391.34;;;-1.29;78.05
76592;BME280;65481;47.600;19.682;2023-02-28T00:46:11;101393.22;;;-1.19;77.85
76592;BME280;65481;47.600;19.682;2023-02-28T00:51:12;101390.50;;;-1.18;78.04
76592;BME280;65481;47.600;19.682;2023-02-28T00:56:13;101392.63;;;-1.12;77.77
76592;BME280;65481;47.600;19.682;2023-02-28T01:01:13;101391.78;;;-1.12;78.30
76592;BME280;65481;47.600;19.682;2023-02-28T01:06:14;101393.91;;;-1.17;78.59
76592;BME280;65481;47.600;19.682;2023-02-28T01:11:16;101396.72;;;-1.09;78.48
76592;BME280;65481;47.600;19.682;2023-02-28T01:16:17;101390.75;;;-1.21;79.18
76592;BME280;65481;47.600;19.682;2023-02-28T01:21:20;101394.38;;;-1.12;79.23
76592;BME280;65481;47.600;19.682;2023-02-28T01:26:22;101403.41;;;-1.07;79.41
76592;BME280;65481;47.600;19.682;2023-02-28T01:31:22;101381.03;;;-1.08;79.41
76592;BME280;65481;47.600;19.682;2023-02-28T01:36:24;101388.56;;;-1.04;79.42
76592;BME280;65481;47.600;19.682;2023-02-28T01:41:28;101395.16;;;-1.00;79.00
76592;BME280;65481;47.600;19.682;2023-02-28T01:46:31;101394.09;;;-0.98;78.59
76592;BME280;65481;47.600;19.682;2023-02-28T01:51:45;101390.94;;;-1.01;78.92
76592;BME280;65481;47.600;19.682;2023-02-28T01:56:57;101400.34;;;-1.00;78.95
76592;BME280;65481;47.600;19.682;2023-02-28T02:02:01;101403.41;;;-1.07;79.53
76592;BME280;65481;47.600;19.682;2023-02-28T02:07:03;101392.81;;;-1.03;79.47
76592;BME280;65481;47.600;19.682;2023-02-28T02:17:43;101386.59;;;-1.01;80.24
76592;BME280;65481;47.600;19.682;2023-02-28T02:43:54;101377.28;;;-0.71;80.73
76592;BME280;65481;47.600;19.682;2023-02-28T02:48:57;101387.25;;;-0.66;80.18
76592;BME280;65481;47.600;19.682;2023-02-28T02:54:05;101398.56;;;-0.67;80.36
76592;BME280;65481;47.600;19.682;2023-02-28T02:59:11;101397.16;;;-0.71;80.88
76592;BME280;65481;47.600;19.682;2023-02-28T03:04:17;101402.25;;;-0.70;80.72
76592;BME280;65481;47.600;19.682;2023-02-28T03:09:18;101395.16;;;-0.68;81.32
76592;BME280;65481;47.600;19.682;2023-02-28T03:14:37;101393.28;;;-0.66;81.95
76592;BME280;65481;47.600;19.682;2023-02-28T03:20:04;101394.09;;;-0.65;82.10
76592;BME280;65481;47.600;19.682;2023-02-28T03:35:26;101400.53;;;-0.59;82.34
76592;BME280;65481;47.600;19.682;2023-02-28T03:40:32;101409.84;;;-0.57;82.81
76592;BME280;65481;47.600;19.682;2023-02-28T03:45:36;101405.94;;;-0.51;82.56
76592;BME280;65481;47.600;19.682;2023-02-28T03:50:40;101402.81;;;-0.45;82.63
76592;BME280;65481;47.600;19.682;2023-02-28T03:55:48;101401.75;;;-0.42;82.65
76592;BME280;65481;47.600;19.682;2023-02-28T04:00:55;101392.44;;;-0.45;82.66
76592;BME280;65481;47.600;19.682;2023-02-28T04:05:59;101396.25;;;-0.49;82.94
76592;BME280;65481;47.600;19.682;2023-02-28T04:11:12;101397.00;;;-0.58;83.79
76592;BME280;65481;47.600;19.682;2023-02-28T04:16:17;101392.13;;;-0.52;83.70
76592;BME280;65481;47.600;19.682;2023-02-28T04:21:17;101395.50;;;-0.40;83.50
76592;BME280;65481;47.600;19.682;2023-02-28T04:26:21;101391.44;;;-0.33;83.18
76592;BME280;65481;47.600;19.682;2023-02-28T04:31:21;101383.78;;;-0.34;83.27
76592;BME280;65481;47.600;19.682;2023-02-28T04:36:22;101374.81;;;-0.30;83.16
76592;BME280;65481;47.600;19.682;2023-02-28T04:41:23;101367.16;;;-0.32;83.12
76592;BME280;65481;47.600;19.682;2023-02-28T04:46:24;101376.06;;;-0.24;83.12
76592;BME280;65481;47.600;19.682;2023-02-28T04:51:24;101372.41;;;-0.22;83.00
76592;BME280;65481;47.600;19.682;2023-02-28T04:56:25;101375.81;;;-0.21;82.57
76592;BME280;65481;47.600;19.682;2023-02-28T05:01:35;101375.41;;;-0.17;82.53
76592;BME280;65481;47.600;19.682;2023-02-28T05:06:36;101378.47;;;-0.33;82.95
76592;BME280;65481;47.600;19.682;2023-02-28T05:11:37;101373.69;;;-0.37;83.19
76592;BME280;65481;47.600;19.682;2023-02-28T05:16:39;101377.59;;;-0.22;82.32
76592;BME280;65481;47.600;19.682;2023-02-28T05:21:47;101379.28;;;-0.32;82.38
76592;BME280;65481;47.600;19.682;2023-02-28T05:26:51;101375.06;;;-0.33;82.45
76592;BME280;65481;47.600;19.682;2023-02-28T05:31:52;101378.34;;;-0.31;82.46
76592;BME280;65481;47.600;19.682;2023-02-28T05:36:52;101376.75;;;-0.22;82.09
76592;BME280;65481;47.600;19.682;2023-02-28T05:41:53;101380.13;;;-0.32;82.48
76592;BME280;65481;47.600;19.682;2023-02-28T05:46:53;101384.72;;;-0.35;83.40
76592;BME280;65481;47.600;19.682;2023-02-28T05:51:54;101395.31;;;-0.27;83.19
76592;BME280;65481;47.600;19.682;2023-02-28T05:56:55;101401.31;;;-0.26;84.00
76592;BME280;65481;47.600;19.682;2023-02-28T06:01:55;101407.06;;;-0.23;84.21
76592;BME280;65481;47.600;19.682;2023-02-28T06:06:55;101404.59;;;-0.24;84.03
76592;BME280;65481;47.600;19.682;2023-02-28T06:12:03;101416.25;;;-0.19;84.82
76592;BME280;65481;47.600;19.682;2023-02-28T06:17:05;101415.16;;;-0.16;85.07
76592;BME280;65481;47.600;19.682;2023-02-28T06:22:06;101413.81;;;-0.10;85.65
76592;BME280;65481;47.600;19.682;2023-02-28T06:27:06;101423.56;;;-0.03;86.13
76592;BME280;65481;47.600;19.682;2023-02-28T06:32:07;101425.72;;;0.13;85.49
76592;BME280;65481;47.600;19.682;2023-02-28T06:37:07;101423.44;;;0.30;84.59
76592;BME280;65481;47.600;19.682;2023-02-28T06:42:08;101427.88;;;0.49;82.77
76592;BME280;65481;47.600;19.682;2023-02-28T06:47:08;101429.03;;;0.66;81.89
76592;BME280;65481;47.600;19.682;2023-02-28T06:52:09;101441.50;;;0.82;81.02
76592;BME280;65481;47.600;19.682;2023-02-28T06:57:10;101437.31;;;0.91;79.48
76592;BME280;65481;47.600;19.682;2023-02-28T07:02:10;101444.16;;;1.12;78.51
76592;BME280;65481;47.600;19.682;2023-02-28T07:07:11;101446.66;;;1.33;77.04
76592;BME280;65481;47.600;19.682;2023-02-28T07:12:11;101457.06;;;1.53;76.46
76592;BME280;65481;47.600;19.682;2023-02-28T07:17:12;101458.38;;;1.76;74.73
76592;BME280;65481;47.600;19.682;2023-02-28T07:22:12;101461.13;;;1.85;72.37
76592;BME280;65481;47.600;19.682;2023-02-28T07:27:13;101461.66;;;1.88;69.75
76592;BME280;65481;47.600;19.682;2023-02-28T07:32:23;101463.56;;;1.96;68.22
76592;BME280;65481;47.600;19.682;2023-02-28T07:37:24;101468.97;;;2.22;67.54
76592;BME280;65481;47.600;19.682;2023-02-28T07:42:24;101460.56;;;2.38;65.65
76592;BME280;65481;47.600;19.682;2023-02-28T07:47:25;101461.72;;;2.54;64.35
76592;BME280;65481;47.600;19.682;2023-02-28T07:52:25;101458.13;;;2.65;63.68
76592;BME280;65481;47.600;19.682;2023-02-28T07:57:26;101462.66;;;2.63;62.65
76592;BME280;65481;47.600;19.682;2023-02-28T08:02:27;101460.06;;;2.91;61.20
76592;BME280;65481;47.600;19.682;2023-02-28T08:07:27;101462.16;;;3.23;60.66
76592;BME280;65481;47.600;19.682;2023-02-28T08:12:28;101454.94;;;3.53;59.71
76592;BME280;65481;47.600;19.682;2023-02-28T08:17:28;101458.69;;;3.77;58.00
76592;BME280;65481;47.600;19.682;2023-02-28T08:22:29;101450.94;;;3.67;55.05
76592;BME280;65481;47.600;19.682;2023-02-28T08:27:29;101453.72;;;3.92;54.52
76592;BME280;65481;47.600;19.682;2023-02-28T08:32:32;101472.47;;;4.14;54.86
76592;BME280;65481;47.600;19.682;2023-02-28T08:37:33;101473.38;;;4.31;53.88
76592;BME280;65481;47.600;19.682;2023-02-28T08:42:33;101474.50;;;4.28;52.91
76592;BME280;65481;47.600;19.682;2023-02-28T08:47:34;101479.91;;;4.27;52.18
76592;BME280;65481;47.600;19.682;2023-02-28T08:52:34;101480.03;;;4.25;52.61
76592;BME280;65481;47.600;19.682;2023-02-28T08:57:35;101472.66;;;4.47;51.70
76592;BME280;65481;47.600;19.682;2023-02-28T09:02:35;101473.31;;;4.49;50.98
76592;BME280;65481;47.600;19.682;2023-02-28T09:07:37;101473.53;;;4.64;50.88
76592;BME280;65481;47.600;19.682;2023-02-28T09:12:37;101472.72;;;4.63;50.77
76592;BME280;65481;47.600;19.682;2023-02-28T09:17:38;101480.44;;;4.73;50.29
76592;BME280;65481;47.600;19.682;2023-02-28T09:22:38;101483.03;;;4.65;50.44
76592;BME280;65481;47.600;19.682;2023-02-28T09:27:39;101483.47;;;4.60;50.79
76592;BME280;65481;47.600;19.682;2023-02-28T09:32:39;101490.75;;;4.83;50.64
76592;BME280;65481;47.600;19.682;2023-02-28T09:37:40;101486.25;;;5.02;50.72
76592;BME280;65481;47.600;19.682;2023-02-28T09:42:40;101488.41;;;5.23;50.39
76592;BME280;65481;47.600;19.682;2023-02-28T09:47:44;101483.38;;;5.46;49.44
76592;BME280;65481;47.600;19.682;2023-02-28T09:52:48;101489.75;;;5.68;49.42
76592;BME280;65481;47.600;19.682;2023-02-28T09:57:50;101487.44;;;5.98;48.09
76592;BME280;65481;47.600;19.682;2023-02-28T10:13:54;101470.13;;;6.85;46.24
76592;BME280;65481;47.600;19.682;2023-02-28T10:19:23;101472.13;;;6.83;45.95
76592;BME280;65481;47.600;19.682;2023-02-28T10:24:30;101463.56;;;6.89;45.78
76592;BME280;65481;47.600;19.682;2023-02-28T10:29:33;101454.38;;;6.85;46.31
76592;BME280;65481;47.600;19.682;2023-02-28T10:34:33;101449.50;;;6.82;46.29
76592;BME280;65481;47.600;19.682;2023-02-28T10:39:42;101452.63;;;6.77;45.91
76592;BME280;65481;47.600;19.682;2023-02-28T10:44:43;101447.38;;;7.09;45.92
76592;BME280;65481;47.600;19.682;2023-02-28T10:49:49;101443.19;;;7.23;45.27
76592;BME280;65481;47.600;19.682;2023-02-28T10:55:14;101444.56;;;7.34;45.20
76592;BME280;65481;47.600;19.682;2023-02-28T11:00:21;101445.81;;;7.61;45.26
76592;BME280;65481;47.600;19.682;2023-02-28T11:10:31;101432.63;;;7.84;44.99
76592;BME280;65481;47.600;19.682;2023-02-28T11:15:35;101429.09;;;7.92;44.73
76592;BME280;65481;47.600;19.682;2023-02-28T11:20:35;101427.56;;;7.98;44.15
76592;BME280;65481;47.600;19.682;2023-02-28T11:25:38;101416.25;;;7.97;44.35
76592;BME280;65481;47.600;19.682;2023-02-28T11:30:40;101422.88;;;8.08;43.79
76592;BME280;65481;47.600;19.682;2023-02-28T11:35:42;101420.66;;;8.57;43.31
76592;BME280;65481;47.600;19.682;2023-02-28T11:51:27;101415.41;;;8.93;43.03
76592;BME280;65481;47.600;19.682;2023-02-28T11:56:43;101409.88;;;8.52;43.86
76592;BME280;65481;47.600;19.682;2023-02-28T12:07:34;101404.38;;;7.86;44.82
76592;BME280;65481;47.600;19.682;2023-02-28T12:23:56;101384.84;;;7.51;45.87
76592;BME280;65481;47.600;19.682;2023-02-28T12:29:27;101380.31;;;7.45;46.15
76592;BME280;65481;47.600;19.682;2023-02-28T12:34:33;101385.63;;;7.36;46.44
76592;BME280;65481;47.600;19.682;2023-02-28T12:39:45;101373.97;;;7.39;46.79
76592;BME280;65481;47.600;19.682;2023-02-28T12:44:55;101372.09;;;7.48;46.95
76592;BME280;65481;47.600;19.682;2023-02-28T12:55:12;101376.66;;;7.31;47.65
76592;BME280;65481;47.600;19.682;2023-02-28T13:00:20;101365.97;;;7.32;47.24
76592;BME280;65481;47.600;19.682;2023-02-28T13:11:02;101354.06;;;7.45;47.38
76592;BME280;65481;47.600;19.682;2023-02-28T13:16:08;101362.84;;;7.52;48.20
76592;BME280;65481;47.600;19.682;2023-02-28T13:21:23;101352.06;;;7.47;48.05
76592;BME280;65481;47.600;19.682;2023-02-28T13:47:24;101339.59;;;7.10;50.62
76592;BME280;65481;47.600;19.682;2023-02-28T13:52:28;101329.22;;;6.94;51.28
76592;BME280;65481;47.600;19.682;2023-02-28T14:03:23;101322.88;;;6.88;51.55
76592;BME280;65481;47.600;19.682;2023-02-28T14:08:27;101316.09;;;6.94;51.64
76592;BME280;65481;47.600;19.682;2023-02-28T14:13:45;101318.22;;;6.75;52.73
76592;BME280;65481;47.600;19.682;2023-02-28T14:24:33;101317.66;;;7.03;52.45
76592;BME280;65481;47.600;19.682;2023-02-28T14:40:14;101307.47;;;7.08;52.32
76592;BME280;65481;47.600;19.682;2023-02-28T14:45:20;101295.22;;;7.01;52.49
76592;BME280;65481;47.600;19.682;2023-02-28T14:50:23;101304.84;;;6.85;53.10
76592;BME280;65481;47.600;19.682;2023-02-28T14:55:34;101303.59;;;6.81;52.44
76592;BME280;65481;47.600;19.682;2023-02-28T15:00:42;101307.81;;;6.59;53.70
76592;BME280;65481;47.600;19.682;2023-02-28T15:06:16;101312.31;;;6.50;53.33
76592;BME280;65481;47.600;19.682;2023-02-28T15:11:19;101311.19;;;6.44;53.92
76592;BME280;65481;47.600;19.682;2023-02-28T15:21:33;101306.31;;;6.10;54.55
76592;BME280;65481;47.600;19.682;2023-02-28T15:26:46;101314.53;;;6.06;55.06
76592;BME280;65481;47.600;19.682;2023-02-28T15:31:58;101317.97;;;5.99;55.62
76592;BME280;65481;47.600;19.682;2023-02-28T15:37:00;101313.72;;;5.98;55.41
76592;BME280;65481;47.600;19.682;2023-02-28T15:42:30;101321.28;;;5.84;55.61
76592;BME280;65481;47.600;19.682;2023-02-28T15:47:32;101307.56;;;5.82;55.64
76592;BME280;65481;47.600;19.682;2023-02-28T15:52:44;101310.19;;;5.74;56.12
76592;BME280;65481;47.600;19.682;2023-02-28T15:57:47;101312.19;;;5.64;56.39
76592;BME280;65481;47.600;19.682;2023-02-28T16:02:49;101303.19;;;5.66;56.06
76592;BME280;65481;47.600;19.682;2023-02-28T16:07:49;101302.06;;;5.60;56.40
76592;BME280;65481;47.600;19.682;2023-02-28T16:12:50;101308.44;;;5.58;56.61
76592;BME280;65481;47.600;19.682;2023-02-28T16:17:50;101314.03;;;5.55;56.44
76592;BME280;65481;47.600;19.682;2023-02-28T16:22:51;101311.09;;;5.50;56.83
76592;BME280;65481;47.600;19.682;2023-02-28T16:27:52;101311.22;;;5.48;56.97
76592;BME280;65481;47.600;19.682;2023-02-28T16:32:55;101314.22;;;5.37;57.54
76592;BME280;65481;47.600;19.682;2023-02-28T16:37:56;101316.53;;;5.23;57.99
76592;BME280;65481;47.600;19.682;2023-02-28T16:42:58;101313.25;;;5.21;57.99
76592;BME280;65481;47.600;19.682;2023-02-28T16:48:00;101322.25;;;5.19;58.09
76592;BME280;65481;47.600;19.682;2023-02-28T16:53:01;101330.75;;;5.12;58.39
76592;BME280;65481;47.600;19.682;2023-02-28T16:58:02;101339.09;;;5.08;59.05
76592;BME280;65481;47.600;19.682;2023-02-28T17:03:02;101332.22;;;4.98;59.86
76592;BME280;65481;47.600;19.682;2023-02-28T17:08:03;101335.50;;;4.92;60.40
76592;BME280;65481;47.600;19.682;2023-02-28T17:13:04;101344.47;;;4.90;60.87
76592;BME280;65481;47.600;19.682;2023-02-28T17:18:12;101346.28;;;4.89;61.45
76592;BME280;65481;47.600;19.682;2023-02-28T17:23:14;101342.19;;;4.87;61.50
76592;BME280;65481;47.600;19.682;2023-02-28T17:28:15;101337.78;;;4.87;62.18
76592;BME280;65481;47.600;19.682;2023-02-28T17:33:15;101340.06;;;4.82;62.72
76592;BME280;65481;47.600;19.682;2023-02-28T17:38:18;101351.84;;;4.86;62.51
76592;BME280;65481;47.600;19.682;2023-02-28T17:43:19;101340.09;;;4.90;62.69
76592;BME280;65481;47.600;19.682;2023-02-28T17:48:20;101342.03;;;4.96;62.44
76592;BME280;65481;47.600;19.682;2023-02-28T17:53:20;101342.38;;;5.02;62.25
76592;BME280;65481;47.600;19.682;2023-02-28T17:58:23;101344.47;;;5.06;62.38
76592;BME280;65481;47.600;19.682;2023-02-28T18:03:24;101343.19;;;5.10;62.38
76592;BME280;65481;47.600;19.682;2023-02-28T18:08:26;101339.09;;;5.16;62.16
76592;BME280;65481;47.600;19.682;2023-02-28T18:13:26;101342.03;;;5.13;62.45
76592;BME280;65481;47.600;19.682;2023-02-28T18:18:28;101342.69;;;5.07;63.27
76592;BME280;65481;47.600;19.682;2023-02-28T18:23:29;101356.91;;;4.96;63.87
76592;BME280;65481;47.600;19.682;2023-02-28T18:28:30;101357.38;;;4.83;64.53
76592;BME280;65481;47.600;19.682;2023-02-28T18:33:34;101362.28;;;4.78;65.45
76592;BME280;65481;47.600;19.682;2023-02-28T18:38:35;101363.91;;;4.70;65.89
76592;BME280;65481;47.600;19.682;2023-02-28T18:43:37;101358.66;;;4.62;66.29
76592;BME280;65481;47.600;19.682;2023-02-28T18:48:40;101372.41;;;4.64;66.50
76592;BME280;65481;47.600;19.682;2023-02-28T18:53:42;101364.91;;;4.69;66.07
76592;BME280;65481;47.600;19.682;2023-02-28T18:58:44;101360.31;;;4.72;66.07
76592;BME280;65481;47.600;19.682;2023-02-28T19:03:47;101363.75;;;4.72;66.16
76592;BME280;65481;47.600;19.682;2023-02-28T19:08:52;101354.44;;;4.78;65.67
76592;BME280;65481;47.600;19.682;2023-02-28T19:13:56;101358.38;;;4.74;66.06
76592;BME280;65481;47.600;19.682;2023-02-28T19:18:58;101359.00;;;4.76;66.57
76592;BME280;65481;47.600;19.682;2023-02-28T19:24:01;101355.09;;;4.80;66.55
76592;BME280;65481;47.600;19.682;2023-02-28T19:29:03;101353.59;;;4.69;67.16
76592;BME280;65481;47.600;19.682;2023-02-28T19:34:04;101356.22;;;4.69;67.42
76592;BME280;65481;47.600;19.682;2023-02-28T19:39:05;101359.97;;;4.66;67.64
76592;BME280;65481;47.600;19.682;2023-02-28T19:44:06;101354.59;;;4.60;68.85
76592;BME280;65481;47.600;19.682;2023-02-28T19:49:07;101364.06;;;4.69;68.75
76592;BME280;65481;47.600;19.682;2023-02-28T19:54:10;101369.81;;;4.73;68.57
76592;BME280;65481;47.600;19.682;2023-02-28T19:59:11;101365.25;;;4.75;68.52
76592;BME280;65481;47.600;19.682;2023-02-28T20:04:12;101367.16;;;4.64;69.12
76592;BME280;65481;47.600;19.682;2023-02-28T20:09:13;101362.41;;;4.60;69.47
76592;BME280;65481;47.600;19.682;2023-02-28T20:14:15;101360.47;;;4.62;69.44
76592;BME280;65481;47.600;19.682;2023-02-28T20:19:17;101362.91;;;4.63;69.58
76592;BME280;65481;47.600;19.682;2023-02-28T20:24:18;101362.25;;;4.61;69.74
76592;BME280;65481;47.600;19.682;2023-02-28T20:29:22;101351.97;;;4.60;69.75
76592;BME280;65481;47.600;19.682;2023-02-28T20:34:23;101352.09;;;4.58;70.08
76592;BME280;65481;47.600;19.682;2023-02-28T20:39:24;101356.19;;;4.52;70.24
76592;BME280;65481;47.600;19.682;2023-02-28T20:44:25;101351.63;;;4.54;70.18
76592;BME280;65481;47.600;19.682;2023-02-28T20:49:26;101357.34;;;4.50;70.43
76592;BME280;65481;47.600;19.682;2023-02-28T20:54:28;101351.28;;;4.49;70.54
76592;BME280;65481;47.600;19.682;2023-02-28T20:59:29;101343.94;;;4.53;70.87
76592;BME280;65481;47.600;19.682;2023-02-28T21:04:30;101344.75;;;4.53;70.78
76592;BME280;65481;47.600;19.682;2023-02-28T21:09:31;101344.75;;;4.53;70.90
76592;BME280;65481;47.600;19.682;2023-02-28T21:14:32;101340.38;;;4.54;71.37
76592;BME280;65481;47.600;19.682;2023-02-28T21:19:32;101334.31;;;4.53;71.96
76592;BME280;65481;47.600;19.682;2023-02-28T21:24:33;101339.22;;;4.57;71.98
76592;BME280;65481;47.600;19.682;2023-02-28T21:29:34;101335.44;;;4.51;72.18
76592;BME280;65481;47.600;19.682;2023-02-28T21:34:34;101333.31;;;4.46;72.87
76592;BME280;65481;47.600;19.682;2023-02-28T21:39:35;101327.13;;;4.47;72.69
76592;BME280;65481;47.600;19.682;2023-02-28T21:44:35;101327.91;;;4.48;72.90
76592;BME280;65481;47.600;19.682;2023-02-28T21:49:36;101333.16;;;4.48;73.21
76592;BME280;65481;47.600;19.682;2023-02-28T21:54:37;101330.03;;;4.44;73.26
76592;BME280;65481;47.600;19.682;2023-02-28T21:59:38;101330.03;;;4.44;73.59
76592;BME280;65481;47.600;19.682;2023-02-28T22:04:38;101334.13;;;4.47;73.05
76592;BME280;65481;47.600;19.682;2023-02-28T22:09:39;101335.09;;;4.46;73.26
76592;BME280;65481;47.600;19.682;2023-02-28T22:14:39;101333.63;;;4.43;73.85
76592;BME280;65481;47.600;19.682;2023-02-28T22:19:41;101339.84;;;4.42;74.10
76592;BME280;65481;47.600;19.682;2023-02-28T22:24:41;101341.28;;;4.36;74.41
76592;BME280;65481;47.600;19.682;2023-02-28T22:29:42;101343.91;;;4.36;74.52
76592;BME280;65481;47.600;19.682;2023-02-28T22:34:42;101342.44;;;4.42;74.33
76592;BME280;65481;47.600;19.682;2023-02-28T22:39:43;101344.38;;;4.32;75.06
76592;BME280;65481;47.600;19.682;2023-02-28T22:44:44;101346.47;;;4.20;75.79
76592;BME280;65481;47.600;19.682;2023-02-28T22:49:45;101349.88;;;4.20;75.85
76592;BME280;65481;47.600;19.682;2023-02-28T22:54:49;101351.84;;;4.18;77.09
76592;BME280;65481;47.600;19.682;2023-02-28T22:59:50;101351.81;;;4.10;78.50
76592;BME280;65481;47.600;19.682;2023-02-28T23:04:50;101358.16;;;4.07;79.55
76592;BME280;65481;47.600;19.682;2023-02-28T23:09:53;101355.41;;;4.09;79.53
76592;BME280;65481;47.600;19.682;2023-02-28T23:14:54;101354.75;;;4.07;80.17
76592;BME280;65481;47.600;19.682;2023-02-28T23:19:54;101352.28;;;4.05;80.83
76592;BME280;65481;47.600;19.682;2023-02-28T23:24:55;101358.34;;;4.14;80.48
76592;BME280;65481;47.600;19.682;2023-02-28T23:29:56;101356.41;;;4.16;80.09
76592;BME280;65481;47.600;19.682;2023-02-28T23:34:58;101353.78;;;4.16;79.77
76592;BME280;65481;47.600;19.682;2023-02-28T23:39:59;101343.66;;;4.13;80.00
76592;BME280;65481;47.600;19.682;2023-02-28T23:45:00;101343.19;;;4.18;79.42
76592;BME280;65481;47.600;19.682;2023-02-28T23:50:00;101344.97;;;4.17;79.49
76592;BME280;65481;47.600;19.682;2023-02-28T23:55:01;101345.81;;;4.18;79.07
